createdAt,value
2023-05-05T00:00:15.937Z,99.90
2023-05-05T00:03:03.598Z,99.90
2023-05-05T00:05:52.266Z,99.90
2023-05-05T00:08:41.595Z,99.90
2023-05-05T00:11:29.190Z,99.90
2023-05-05T00:14:16.919Z,99.90
2023-05-05T00:17:05.339Z,99.90
2023-05-05T00:19:53.346Z,99.90
2023-05-05T00:22:40.919Z,99.90
2023-05-05T00:25:30.015Z,99.90
2023-05-05T00:28:17.621Z,99.90
2023-05-05T00:31:05.043Z,99.90
2023-05-05T00:33:52.397Z,99.90
2023-05-05T00:36:40.127Z,99.90
2023-05-05T00:39:27.859Z,99.90
2023-05-05T00:42:16.873Z,99.90
2023-05-05T00:45:05.090Z,99.90
2023-05-05T00:47:55.066Z,99.90
2023-05-05T00:50:44.974Z,99.90
2023-05-05T00:53:32.955Z,99.90
2023-05-05T00:56:22.206Z,99.90
2023-05-05T00:59:10.909Z,99.90
2023-05-05T01:01:59.536Z,99.90
2023-05-05T01:04:47.190Z,99.90
2023-05-05T01:07:45.676Z,99.90
2023-05-05T01:10:41.037Z,99.90
2023-05-05T01:13:37.337Z,99.90
2023-05-05T01:16:30.185Z,99.90
2023-05-05T01:19:39.591Z,99.90
2023-05-05T01:22:35.134Z,99.90
2023-05-05T01:25:37.555Z,99.90
2023-05-05T01:28:51.018Z,99.90
2023-05-05T01:31:51.858Z,99.90
2023-05-05T01:34:44.969Z,99.90
2023-05-05T01:37:39.199Z,99.90
2023-05-05T01:40:31.385Z,99.90
2023-05-05T01:43:24.163Z,99.90
2023-05-05T01:46:13.329Z,99.90
2023-05-05T01:49:05.028Z,99.90
2023-05-05T01:51:53.779Z,99.90
2023-05-05T01:54:42.257Z,99.90
2023-05-05T01:57:32.171Z,99.90
2023-05-05T02:00:21.191Z,99.90
2023-05-05T02:03:11.148Z,99.90
2023-05-05T02:06:02.437Z,99.90
2023-05-05T02:08:52.988Z,99.90
2023-05-05T02:11:42.137Z,99.90
2023-05-05T02:14:31.599Z,99.90
2023-05-05T02:17:21.338Z,99.90
2023-05-05T02:20:12.933Z,99.90
2023-05-05T02:23:01.728Z,99.90
2023-05-05T02:25:53.080Z,99.90
2023-05-05T02:28:43.949Z,99.90
2023-05-05T02:31:33.964Z,99.90
2023-05-05T02:34:26.612Z,99.90
2023-05-05T02:37:20.351Z,99.90
2023-05-05T02:40:12.358Z,99.90
2023-05-05T02:43:04.111Z,99.90
2023-05-05T02:45:51.686Z,99.90
2023-05-05T02:48:40.117Z,99.90
2023-05-05T02:51:27.779Z,99.90
2023-05-05T02:54:17.174Z,99.90
2023-05-05T02:57:06.278Z,99.90
2023-05-05T03:00:09.599Z,99.90
2023-05-05T03:03:09.362Z,99.90
2023-05-05T03:06:03.743Z,99.90
2023-05-05T03:08:57.419Z,99.90
2023-05-05T03:11:51.368Z,99.90
2023-05-05T03:14:44.280Z,99.90
2023-05-05T03:17:36.783Z,99.90
2023-05-05T03:20:25.951Z,99.90
2023-05-05T03:23:14.684Z,99.90
2023-05-05T03:26:04.740Z,99.90
2023-05-05T03:28:55.625Z,99.90
2023-05-05T03:31:52.205Z,99.90
2023-05-05T03:34:40.006Z,99.90
2023-05-05T03:37:27.781Z,99.90
2023-05-05T03:40:15.480Z,99.90
2023-05-05T03:43:03.492Z,99.90
2023-05-05T03:45:52.559Z,99.90
2023-05-05T03:48:42.044Z,99.90
2023-05-05T03:51:29.733Z,99.90
2023-05-05T03:54:18.585Z,99.90
2023-05-05T03:57:06.419Z,99.90
2023-05-05T03:59:54.271Z,99.90
2023-05-05T04:02:42.097Z,99.90
2023-05-05T04:05:32.538Z,99.90
2023-05-05T04:08:20.290Z,99.90
2023-05-05T04:11:08.029Z,99.90
2023-05-05T04:13:56.898Z,99.90
2023-05-05T04:16:44.896Z,99.90
2023-05-05T04:19:33.991Z,99.90
2023-05-05T04:22:25.402Z,99.90
2023-05-05T04:25:13.166Z,99.90
2023-05-05T04:28:01.043Z,99.90
2023-05-05T04:30:48.948Z,99.90
2023-05-05T04:33:36.611Z,99.90
2023-05-05T04:36:24.977Z,99.90
2023-05-05T04:39:14.062Z,99.90
2023-05-05T04:42:02.319Z,99.90
2023-05-05T04:44:50.432Z,99.90
2023-05-05T04:47:39.191Z,99.90
2023-05-05T04:50:27.092Z,99.90
2023-05-05T04:53:14.538Z,99.90
2023-05-05T04:56:03.765Z,99.90
2023-05-05T04:58:51.745Z,99.90
2023-05-05T05:01:39.693Z,99.90
2023-05-05T05:04:27.438Z,99.90
2023-05-05T05:07:15.559Z,99.90
2023-05-05T05:10:03.266Z,99.90
2023-05-05T05:12:52.076Z,99.90
2023-05-05T05:15:39.386Z,99.90
2023-05-05T05:18:26.993Z,99.90
2023-05-05T05:21:15.132Z,99.90
2023-05-05T05:24:02.760Z,99.90
2023-05-05T05:26:50.153Z,99.90
2023-05-05T05:29:38.909Z,99.90
2023-05-05T05:32:27.041Z,99.90
2023-05-05T05:35:14.717Z,99.90
2023-05-05T05:38:02.534Z,99.90
2023-05-05T05:40:50.734Z,99.90
2023-05-05T05:43:38.916Z,99.90
2023-05-05T05:46:28.529Z,99.90
2023-05-05T05:49:16.364Z,99.90
2023-05-05T05:52:03.760Z,99.90
2023-05-05T05:54:51.856Z,99.90
2023-05-05T05:57:39.302Z,99.90
2023-05-05T06:00:28.558Z,99.90
2023-05-05T06:03:24.753Z,99.90
2023-05-05T06:06:12.825Z,99.90
2023-05-05T06:09:00.308Z,99.90
2023-05-05T06:11:49.472Z,99.90
2023-05-05T06:14:37.312Z,99.90
2023-05-05T06:17:25.074Z,99.90
2023-05-05T06:20:15.172Z,99.90
2023-05-05T06:23:02.710Z,99.90
2023-05-05T06:25:54.654Z,99.90
2023-05-05T06:28:42.720Z,99.90
2023-05-05T06:31:30.605Z,99.90
2023-05-05T06:34:18.349Z,99.90
2023-05-05T06:37:07.524Z,99.90
2023-05-05T06:39:54.952Z,99.90
2023-05-05T06:42:42.592Z,99.90
2023-05-05T06:45:35.926Z,99.90
2023-05-05T06:48:23.345Z,99.90
2023-05-05T06:51:10.930Z,99.90
2023-05-05T06:54:00.410Z,99.90
2023-05-05T06:56:47.984Z,99.90
2023-05-05T06:59:35.341Z,99.90
2023-05-05T07:02:24.791Z,99.90
2023-05-05T07:05:14.118Z,99.90
2023-05-05T07:08:01.964Z,99.90
2023-05-05T07:10:50.700Z,99.90
2023-05-05T07:13:38.288Z,99.90
2023-05-05T07:16:27.083Z,99.90
2023-05-05T07:19:14.773Z,99.90
2023-05-05T07:22:02.278Z,99.90
2023-05-05T07:24:49.888Z,99.90
2023-05-05T07:27:40.795Z,99.90
2023-05-05T07:30:28.560Z,99.90
2023-05-05T07:33:16.274Z,99.90
2023-05-05T07:36:05.399Z,99.90
2023-05-05T07:38:53.037Z,99.90
2023-05-05T07:41:40.686Z,99.90
2023-05-05T07:44:29.767Z,99.90
2023-05-05T07:47:17.458Z,99.90
2023-05-05T07:50:05.173Z,99.90
2023-05-05T07:52:59.376Z,99.90
2023-05-05T07:55:58.268Z,99.90
2023-05-05T07:58:46.815Z,99.90
2023-05-05T08:01:35.660Z,99.90
2023-05-05T08:04:23.479Z,99.90
2023-05-05T08:07:11.608Z,99.90
2023-05-05T08:09:59.429Z,99.90
2023-05-05T08:12:47.123Z,99.90
2023-05-05T08:15:34.682Z,99.90
2023-05-05T08:18:25.130Z,99.90
2023-05-05T08:21:13.160Z,99.90
2023-05-05T08:24:00.829Z,99.90
2023-05-05T08:26:48.410Z,99.90
2023-05-05T08:29:36.083Z,99.60
2023-05-05T08:32:23.619Z,99.70
2023-05-05T08:35:12.996Z,99.30
2023-05-05T08:38:00.538Z,96.60
2023-05-05T08:40:48.276Z,96.50
2023-05-05T08:43:36.626Z,98.30
2023-05-05T08:46:28.172Z,96.50
2023-05-05T08:49:18.945Z,96.10
2023-05-05T08:52:12.213Z,95.20
2023-05-05T08:55:07.599Z,94.20
2023-05-05T08:57:57.386Z,91.60
2023-05-05T09:00:46.585Z,94.10
2023-05-05T09:03:36.796Z,92.90
2023-05-05T09:06:26.905Z,92.20
2023-05-05T09:09:16.164Z,92.70
2023-05-05T09:12:04.274Z,91.50
2023-05-05T09:14:52.046Z,91.60
2023-05-05T09:17:40.101Z,88.00
2023-05-05T09:20:35.195Z,88.30
2023-05-05T09:23:22.928Z,90.10
2023-05-05T09:26:11.663Z,89.50
2023-05-05T09:28:59.173Z,89.30
2023-05-05T09:32:05.377Z,88.00
2023-05-05T09:35:00.209Z,85.90
2023-05-05T09:37:47.857Z,88.40
2023-05-05T09:40:46.842Z,84.90
2023-05-05T09:43:52.904Z,83.80
2023-05-05T09:46:51.146Z,83.40
2023-05-05T09:49:39.924Z,82.60
2023-05-05T09:52:27.590Z,83.20
2023-05-05T09:55:18.688Z,84.00
2023-05-05T09:58:19.726Z,82.60
2023-05-05T10:01:23.765Z,83.60
2023-05-05T10:04:24.354Z,81.10
2023-05-05T10:07:24.217Z,81.40
2023-05-05T10:10:13.402Z,82.20
2023-05-05T10:13:00.886Z,80.90
2023-05-05T10:15:50.764Z,79.30
2023-05-05T10:18:44.874Z,78.20
2023-05-05T10:21:38.007Z,73.10
2023-05-05T10:24:35.527Z,74.40
2023-05-05T10:27:24.376Z,77.00
2023-05-05T10:30:19.052Z,75.90
2023-05-05T10:33:31.113Z,76.60
2023-05-05T10:36:21.637Z,76.60
2023-05-05T10:39:10.967Z,75.30
2023-05-05T10:42:02.790Z,73.60
2023-05-05T10:44:50.920Z,73.10
2023-05-05T10:47:40.415Z,73.10
2023-05-05T10:50:34.485Z,74.70
2023-05-05T10:53:29.588Z,70.70
2023-05-05T10:56:26.987Z,72.30
2023-05-05T10:59:43.476Z,73.20
2023-05-05T11:02:31.883Z,73.10
2023-05-05T11:05:21.611Z,73.60
2023-05-05T11:08:28.220Z,73.40
2023-05-05T11:11:16.028Z,70.40
2023-05-05T11:14:22.389Z,68.60
2023-05-05T11:17:45.743Z,66.70
2023-05-05T11:21:07.826Z,69.50
2023-05-05T11:24:16.570Z,71.50
2023-05-05T11:27:04.700Z,72.50
2023-05-05T11:30:12.188Z,67.20
2023-05-05T11:33:24.673Z,72.00
2023-05-05T11:36:13.164Z,75.40
2023-05-05T11:39:10.438Z,74.60
2023-05-05T11:42:24.585Z,73.00
2023-05-05T11:45:23.133Z,66.30
2023-05-05T11:48:27.373Z,70.20
2023-05-05T11:51:15.366Z,71.90
2023-05-05T11:54:02.962Z,72.10
2023-05-05T11:56:53.247Z,72.60
2023-05-05T11:59:52.422Z,70.20
2023-05-05T12:02:40.132Z,73.00
2023-05-05T12:05:27.840Z,71.10
2023-05-05T12:08:15.864Z,70.60
2023-05-05T12:11:04.414Z,68.70
2023-05-05T12:14:08.697Z,72.90
2023-05-05T12:16:56.827Z,66.90
2023-05-05T12:19:51.757Z,71.20
2023-05-05T12:22:40.081Z,70.70
2023-05-05T12:25:35.729Z,69.30
2023-05-05T12:28:23.643Z,71.60
2023-05-05T12:31:12.948Z,70.50
2023-05-05T12:34:01.929Z,64.50
2023-05-05T12:36:49.556Z,68.50
2023-05-05T12:39:36.998Z,74.00
2023-05-05T12:42:24.901Z,77.90
2023-05-05T12:45:18.530Z,72.00
2023-05-05T12:48:25.330Z,72.80
2023-05-05T12:51:21.192Z,68.80
2023-05-05T12:54:09.947Z,71.90
2023-05-05T12:56:58.840Z,73.20
2023-05-05T12:59:46.678Z,72.70
2023-05-05T13:02:35.866Z,71.80
2023-05-05T13:05:36.295Z,70.00
2023-05-05T13:08:25.434Z,65.20
2023-05-05T13:11:13.322Z,70.80
2023-05-05T13:14:00.748Z,67.60
2023-05-05T13:16:48.558Z,68.90
2023-05-05T13:19:41.868Z,68.40
2023-05-05T13:22:30.804Z,69.20
2023-05-05T13:25:18.542Z,69.30
2023-05-05T13:28:06.071Z,64.30
2023-05-05T13:30:53.762Z,65.70
2023-05-05T13:33:41.515Z,65.60
2023-05-05T13:36:28.906Z,65.90
2023-05-05T13:39:17.692Z,66.90
2023-05-05T13:42:05.499Z,66.60
2023-05-05T13:44:53.452Z,68.30
2023-05-05T13:47:42.109Z,65.60
2023-05-05T13:50:29.558Z,69.90
2023-05-05T13:53:17.609Z,68.90
2023-05-05T13:56:07.131Z,68.80
2023-05-05T13:58:54.656Z,68.10
2023-05-05T14:01:42.549Z,67.80
2023-05-05T14:04:30.329Z,65.50
2023-05-05T14:07:18.282Z,66.10
2023-05-05T14:10:06.945Z,63.70
2023-05-05T14:12:56.215Z,67.40
2023-05-05T14:15:43.875Z,65.10
2023-05-05T14:18:31.892Z,66.00
2023-05-05T14:21:19.298Z,65.50
2023-05-05T14:24:07.254Z,65.00
2023-05-05T14:26:54.531Z,65.90
2023-05-05T14:29:43.395Z,66.00
2023-05-05T14:32:30.933Z,65.00
2023-05-05T14:35:18.423Z,65.10
2023-05-05T14:38:06.228Z,64.20
2023-05-05T14:40:54.313Z,66.20
2023-05-05T14:43:41.932Z,63.10
2023-05-05T14:46:31.745Z,63.40
2023-05-05T14:49:19.580Z,65.70
2023-05-05T14:52:07.102Z,67.50
2023-05-05T14:54:54.530Z,62.60
2023-05-05T14:57:42.277Z,61.50
2023-05-05T15:00:30.914Z,66.50
2023-05-05T15:03:19.934Z,64.50
2023-05-05T15:06:08.654Z,65.10
2023-05-05T15:08:56.038Z,64.30
2023-05-05T15:11:45.084Z,62.80
2023-05-05T15:14:32.630Z,62.50
2023-05-05T15:17:20.304Z,64.60
2023-05-05T15:20:10.314Z,65.30
2023-05-05T15:22:57.973Z,62.30
2023-05-05T15:25:45.775Z,62.50
2023-05-05T15:28:33.410Z,58.90
2023-05-05T15:31:21.240Z,61.00
2023-05-05T15:34:08.634Z,60.90
2023-05-05T15:36:57.386Z,60.00
2023-05-05T15:39:44.789Z,59.90
2023-05-05T15:42:33.857Z,60.40
2023-05-05T15:45:21.487Z,60.90
2023-05-05T15:48:08.839Z,64.10
2023-05-05T15:50:56.307Z,66.20
2023-05-05T15:53:45.506Z,67.40
2023-05-05T15:56:33.856Z,67.80
2023-05-05T15:59:21.321Z,67.60
2023-05-05T16:02:08.732Z,65.80
2023-05-05T16:04:56.243Z,66.70
2023-05-05T16:07:44.183Z,65.10
2023-05-05T16:10:32.995Z,65.60
2023-05-05T16:13:20.949Z,63.50
2023-05-05T16:16:08.735Z,67.80
2023-05-05T16:18:56.177Z,67.50
2023-05-05T16:21:43.581Z,68.30
2023-05-05T16:24:31.203Z,65.60
2023-05-05T16:27:20.309Z,66.00
2023-05-05T16:30:10.259Z,64.90
2023-05-05T16:32:57.967Z,65.80
2023-05-05T16:35:46.251Z,68.40
2023-05-05T16:38:33.768Z,65.90
2023-05-05T16:41:22.430Z,66.30
2023-05-05T16:44:11.407Z,67.20
2023-05-05T16:46:59.282Z,69.80
2023-05-05T16:49:46.881Z,70.10
2023-05-05T16:52:34.452Z,68.80
2023-05-05T16:55:22.094Z,68.50
2023-05-05T16:58:09.945Z,69.20
2023-05-05T17:01:01.936Z,68.10
2023-05-05T17:03:49.578Z,68.10
2023-05-05T17:06:36.873Z,68.00
2023-05-05T17:09:24.940Z,72.80
2023-05-05T17:12:12.411Z,72.10
2023-05-05T17:15:00.051Z,73.10
2023-05-05T17:17:49.263Z,74.80
2023-05-05T17:20:37.428Z,75.10
2023-05-05T17:23:24.861Z,76.60
2023-05-05T17:26:12.231Z,78.90
2023-05-05T17:28:59.679Z,78.60
2023-05-05T17:31:47.531Z,79.50
2023-05-05T17:34:36.499Z,81.10
2023-05-05T17:37:24.287Z,81.90
2023-05-05T17:40:12.263Z,82.50
2023-05-05T17:42:59.851Z,83.80
2023-05-05T17:45:47.517Z,83.80
2023-05-05T17:48:35.253Z,84.90
2023-05-05T17:51:24.584Z,86.30
2023-05-05T17:54:12.037Z,87.80
2023-05-05T17:56:59.910Z,87.80
2023-05-05T17:59:49.512Z,89.30
2023-05-05T18:02:37.864Z,90.30
2023-05-05T18:05:25.619Z,90.90
2023-05-05T18:08:14.592Z,91.80
2023-05-05T18:11:02.295Z,92.20
2023-05-05T18:13:49.968Z,92.60
2023-05-05T18:16:37.408Z,93.20
2023-05-05T18:19:25.128Z,93.90
2023-05-05T18:22:13.060Z,94.30
2023-05-05T18:25:02.136Z,94.70
2023-05-05T18:27:49.470Z,95.30
2023-05-05T18:30:37.690Z,95.40
2023-05-05T18:33:25.134Z,95.80
2023-05-05T18:36:12.836Z,96.30
2023-05-05T18:39:00.126Z,96.90
2023-05-05T18:41:49.214Z,97.50
2023-05-05T18:44:36.685Z,98.00
2023-05-05T18:47:24.191Z,98.70
2023-05-05T18:50:12.901Z,99.70
2023-05-05T18:53:00.548Z,99.90
2023-05-05T18:55:50.991Z,99.90
2023-05-05T18:58:40.088Z,99.90
2023-05-05T19:01:27.532Z,99.90
2023-05-05T19:04:29.540Z,99.90
2023-05-05T19:07:31.332Z,99.90
2023-05-05T19:10:22.139Z,99.90
2023-05-05T19:13:11.672Z,99.90
2023-05-05T19:16:00.737Z,99.90
2023-05-05T19:18:48.356Z,99.90
2023-05-05T19:21:35.930Z,99.90
2023-05-05T19:24:23.828Z,99.90
2023-05-05T19:27:16.461Z,99.90
2023-05-05T19:30:05.075Z,99.90
2023-05-05T19:32:53.953Z,99.90
2023-05-05T19:35:41.615Z,99.90
2023-05-05T19:38:29.292Z,99.90
2023-05-05T19:41:17.867Z,99.90
2023-05-05T19:44:05.976Z,99.90
2023-05-05T19:46:54.417Z,99.90
2023-05-05T19:49:43.165Z,99.90
2023-05-05T19:52:30.973Z,99.90
2023-05-05T19:55:18.433Z,99.90
2023-05-05T19:58:05.806Z,99.90
2023-05-05T20:00:53.550Z,99.90
2023-05-05T20:03:41.075Z,99.90
2023-05-05T20:06:30.557Z,99.90
2023-05-05T20:09:18.022Z,99.90
2023-05-05T20:12:06.537Z,99.90
2023-05-05T20:14:53.985Z,99.90
2023-05-05T20:17:41.509Z,99.90
2023-05-05T20:20:29.042Z,99.90
2023-05-05T20:23:18.070Z,99.90
2023-05-05T20:26:06.532Z,99.90
2023-05-05T20:28:54.129Z,99.90
2023-05-05T20:31:41.597Z,99.90
2023-05-05T20:34:29.173Z,99.90
2023-05-05T20:37:16.856Z,99.90
2023-05-05T20:40:06.241Z,99.90
2023-05-05T20:42:53.618Z,99.90
2023-05-05T20:45:41.255Z,99.90
2023-05-05T20:48:29.304Z,99.90
2023-05-05T20:51:17.019Z,99.90
2023-05-05T20:54:04.610Z,99.90
2023-05-05T20:56:58.136Z,99.90
2023-05-05T20:59:45.894Z,99.90
2023-05-05T21:02:33.430Z,99.90
2023-05-05T21:05:21.396Z,99.90
2023-05-05T21:08:09.130Z,99.90
2023-05-05T21:10:57.192Z,99.90
2023-05-05T21:13:46.255Z,99.90
2023-05-05T21:16:33.944Z,99.90
2023-05-05T21:19:21.296Z,99.90
2023-05-05T21:22:08.832Z,99.90
2023-05-05T21:24:56.465Z,99.90
2023-05-05T21:27:44.254Z,99.90
2023-05-05T21:30:33.044Z,99.90
2023-05-05T21:33:20.696Z,99.90
2023-05-05T21:36:09.058Z,99.90
2023-05-05T21:38:58.405Z,99.90
2023-05-05T21:41:47.486Z,99.90
2023-05-05T21:44:35.103Z,99.90
2023-05-05T21:47:24.199Z,99.90
2023-05-05T21:50:12.443Z,99.90
2023-05-05T21:53:00.336Z,99.90
2023-05-05T21:55:48.061Z,99.90
2023-05-05T21:58:35.674Z,99.90
2023-05-05T22:01:22.942Z,99.90
2023-05-05T22:04:11.729Z,99.90
2023-05-05T22:06:59.438Z,99.90
2023-05-05T22:09:47.126Z,99.90
2023-05-05T22:12:34.754Z,99.90
2023-05-05T22:15:25.372Z,99.90
2023-05-05T22:18:15.066Z,99.90
2023-05-05T22:21:04.780Z,99.90
2023-05-05T22:23:52.440Z,99.90
2023-05-05T22:26:43.149Z,99.90
2023-05-05T22:29:30.907Z,99.90
2023-05-05T22:32:18.394Z,99.90
2023-05-05T22:35:07.481Z,99.90
2023-05-05T22:37:57.109Z,99.90
2023-05-05T22:40:44.667Z,99.90
2023-05-05T22:43:32.251Z,99.90
2023-05-05T22:46:19.748Z,99.90
2023-05-05T22:49:07.377Z,99.90
2023-05-05T22:51:55.298Z,99.90
2023-05-05T22:54:44.104Z,99.90
2023-05-05T22:57:31.776Z,99.90
2023-05-05T23:00:19.622Z,99.90
2023-05-05T23:03:07.123Z,99.90
2023-05-05T23:05:54.857Z,99.90
2023-05-05T23:08:42.907Z,99.90
2023-05-05T23:11:31.646Z,99.90
2023-05-05T23:14:19.604Z,99.90
2023-05-05T23:17:08.281Z,99.90
2023-05-05T23:19:55.799Z,99.90
2023-05-05T23:22:43.474Z,99.90
2023-05-05T23:25:31.281Z,99.90
2023-05-05T23:28:20.283Z,99.90
2023-05-05T23:31:08.011Z,99.90
2023-05-05T23:33:55.740Z,99.90
2023-05-05T23:36:43.409Z,99.90
2023-05-05T23:39:31.360Z,99.90
2023-05-05T23:42:18.679Z,99.90
2023-05-05T23:45:09.037Z,99.90
2023-05-05T23:47:56.951Z,99.90
2023-05-05T23:50:44.405Z,99.90
2023-05-05T23:53:32.140Z,99.90
2023-05-05T23:56:19.550Z,99.90
2023-05-05T23:59:06.984Z,99.90
